createdAt,value
2023-05-14T00:10:55.321Z,100063.50
2023-05-14T00:25:57.012Z,100060.41
2023-05-14T00:40:58.714Z,100051.09
2023-05-14T00:56:00.518Z,100049.47
2023-05-14T01:11:09.016Z,100046.34
2023-05-14T01:26:10.743Z,100037.88
2023-05-14T01:41:13.886Z,100046.28
2023-05-14T01:56:15.546Z,100031.63
2023-05-14T02:11:17.345Z,100029.16
2023-05-14T02:26:19.247Z,100019.69
2023-05-14T02:41:20.965Z,100008.53
2023-05-14T02:56:22.654Z,100013.25
2023-05-14T03:11:24.397Z,100006.63
2023-05-14T03:26:26.073Z,100000.66
2023-05-14T03:41:27.813Z,100000.00
2023-05-14T03:56:29.629Z,99993.84
2023-05-14T04:11:31.331Z,99992.38
2023-05-14T04:26:33.096Z,99990.72
2023-05-14T04:41:35.042Z,99987.44
2023-05-14T04:56:36.831Z,99991.94
2023-05-14T05:11:38.528Z,99983.09
2023-05-14T05:26:40.246Z,99985.59
2023-05-14T05:41:42.662Z,99985.59
2023-05-14T05:56:44.344Z,99989.88
2023-05-14T06:11:46.013Z,99983.91
2023-05-14T06:26:47.775Z,99996.47
2023-05-14T06:41:49.480Z,99986.38
2023-05-14T06:56:51.170Z,99985.59
2023-05-14T07:11:52.878Z,99976.94
2023-05-14T07:26:54.529Z,99973.91
2023-05-14T07:41:56.246Z,99955.38
2023-05-14T07:56:57.964Z,99945.94
2023-05-14T08:11:59.666Z,99930.50
2023-05-14T08:27:01.570Z,99928.28
2023-05-14T08:42:06.751Z,99912.19
2023-05-14T08:57:10.293Z,99907.06
2023-05-14T09:12:12.023Z,99901.94
2023-05-14T09:27:19.953Z,99893.94
2023-05-14T09:42:21.637Z,99882.00
2023-05-14T09:57:23.433Z,99871.72
2023-05-14T10:12:31.299Z,99849.66
2023-05-14T10:27:34.005Z,99844.75
2023-05-14T10:42:38.190Z,99824.13
2023-05-14T10:57:42.186Z,99802.31
2023-05-14T11:12:48.753Z,99782.13
2023-05-14T11:27:50.798Z,99781.72
2023-05-14T11:42:52.735Z,99767.91
2023-05-14T11:57:54.642Z,99749.56
2023-05-14T12:12:56.426Z,99734.09
2023-05-14T12:27:58.121Z,99711.66
2023-05-14T12:42:59.865Z,99697.88
2023-05-14T12:58:01.581Z,99686.50
2023-05-14T13:13:03.227Z,99658.91
2023-05-14T13:28:05.128Z,99652.69
2023-05-14T13:43:06.834Z,99642.38
2023-05-14T13:58:08.529Z,99638.47
2023-05-14T14:13:10.488Z,99623.38
2023-05-14T14:28:12.163Z,99601.50
2023-05-14T14:43:13.850Z,99589.31
2023-05-14T14:58:15.817Z,99580.06
2023-05-14T15:13:17.614Z,99581.66
2023-05-14T15:28:19.323Z,99568.06
2023-05-14T15:43:21.020Z,99554.03
2023-05-14T15:58:22.721Z,99534.00
2023-05-14T16:13:24.480Z,99543.47
2023-05-14T16:28:26.281Z,99524.03
2023-05-14T16:43:27.967Z,99518.03
2023-05-14T16:58:29.634Z,99517.00
2023-05-14T17:13:34.222Z,99523.19
2023-05-14T17:28:35.957Z,99514.09
2023-05-14T17:43:37.662Z,99517.59
2023-05-14T17:58:39.410Z,99529.97
2023-05-14T18:13:41.118Z,99524.00
2023-05-14T18:28:42.879Z,99531.66
2023-05-14T18:43:44.677Z,99527.34
2023-05-14T18:58:46.349Z,99532.09
2023-05-14T19:13:48.003Z,99530.44
2023-05-14T19:28:49.904Z,99542.44
2023-05-14T19:43:51.599Z,99538.91
2023-05-14T19:58:53.299Z,99530.28
2023-05-14T20:13:55.008Z,99529.66
2023-05-14T20:28:56.681Z,99526.38
2023-05-14T20:43:58.411Z,99523.06
2023-05-14T20:59:00.062Z,99513.63
2023-05-14T21:14:01.812Z,99504.16
2023-05-14T21:29:04.026Z,99488.69
2023-05-14T21:44:05.750Z,99486.66
2023-05-14T21:59:07.470Z,99478.22
2023-05-14T22:14:09.168Z,99453.72
2023-05-14T22:29:10.899Z,99448.78
2023-05-14T22:44:12.623Z,99439.09
2023-05-14T22:59:14.307Z,99429.41
2023-05-14T23:14:16.044Z,99424.47
2023-05-14T23:29:17.707Z,99407.81
2023-05-14T23:44:19.363Z,99384.91
2023-05-14T23:59:21.120Z,99372.78
